Time;durP1;ratioP1;P1;durP2;ratioP2;P2;SDS_P1;SDS_P2;PMS_P1;PMS_P2;Temp;Humidity;BMP_temperature;BMP_pressure;BME280_temperature;BME280_humidity;BME280_pressure;Samples;Min_cycle;Max_cycle;Signal;HPM_P1;HPM_P2
2022/01/28 00:05:22;;;;;;;7.45;6.45;;;;;;;-7.97;81.20;99259.16;4995332;28;20048;-69
2022/01/28 14:19:52;;;;;;;20.15;11.20;;;;;;;-142.02;100.00;61695.09;5008743;28;20079;-75
2022/01/28 14:22:18;;;;;;;25.40;13.45;;;;;;;-142.02;100.00;61695.09;5008387;28;20116;-73
2022/01/28 14:24:44;;;;;;;24.13;14.13;;;;;;;-142.02;100.00;61695.09;5024222;28;20042;-73
2022/01/28 14:32:12;;;;;;;19.30;11.95;;;;;;;-142.02;100.00;61695.09;5007084;28;20194;-73
2022/01/28 14:34:38;;;;;;;13.63;8.10;;;;;;;-142.02;100.00;61695.09;4974227;28;20050;-74
2022/01/28 14:37:05;;;;;;;20.08;13.55;;;;;;;-142.02;100.00;61695.09;4995648;28;20045;-74
2022/01/28 14:39:31;;;;;;;17.02;9.57;;;;;;;-142.02;100.00;61695.09;5009555;28;20059;-74
2022/01/28 14:42:02;;;;;;;20.30;11.73;;;;;;;-6.02;89.84;98836.91;4999095;28;20124;-74
2022/01/28 14:44:33;;;;;;;14.43;9.40;;;;;;;-6.01;89.85;98841.94;5014659;28;20060;-74
2022/01/28 14:46:59;;;;;;;16.98;11.10;;;;;;;-142.02;100.00;61695.09;5032806;28;20295;-74
2022/01/28 14:49:25;;;;;;;24.38;14.13;;;;;;;-5.98;89.67;98848.69;5000903;28;20097;-74
2022/01/28 14:51:58;;;;;;;16.33;10.07;;;;;;;-142.02;100.00;61695.09;4962127;28;20122;-74
2022/01/28 14:54:28;;;;;;;18.25;13.30;;;;;;;-142.02;100.00;61695.09;5008482;28;20512;-74
2022/01/28 14:56:55;;;;;;;19.67;12.52;;;;;;;-142.02;100.00;61695.09;5031834;28;20053;-74
2022/01/28 14:59:21;;;;;;;23.27;14.40;;;;;;;-142.02;100.00;61695.09;5030769;28;20069;-74
2022/01/28 15:01:47;;;;;;;27.95;16.15;;;;;;;-142.02;100.00;61695.09;5029363;28;20053;-74
2022/01/28 15:04:13;;;;;;;32.33;20.33;;;;;;;-142.02;100.00;61695.09;5030354;28;20504;-74
2022/01/28 15:06:40;;;;;;;28.08;12.90;;;;;;;-142.02;100.00;61695.09;5031682;28;20119;-74
2022/01/28 15:09:09;;;;;;;26.05;14.23;;;;;;;-142.02;100.00;61695.09;5017538;28;20536;-75
2022/01/28 15:11:47;;;;;;;25.85;15.73;;;;;;;-142.02;100.00;61695.09;4998227;28;20065;-75
2022/01/28 15:14:24;;;;;;;17.08;11.30;;;;;;;-142.02;100.00;61695.09;5012796;28;20057;-74
2022/01/28 15:16:50;;;;;;;26.27;14.75;;;;;;;-142.02;100.00;61695.09;5018968;28;20054;-75
2022/01/28 15:19:17;;;;;;;21.15;15.13;;;;;;;-142.02;100.00;61695.09;4996300;28;20072;-74
2022/01/28 15:21:49;;;;;;;30.85;13.52;;;;;;;-142.02;100.00;61695.09;4976134;28;20041;-74
2022/01/28 15:24:20;;;;;;;24.60;14.55;;;;;;;-142.02;100.00;61695.09;5006315;28;20424;-74
2022/01/28 15:26:46;;;;;;;17.38;12.70;;;;;;;-142.02;100.00;61695.09;4990941;28;20043;-74
2022/01/28 15:29:33;;;;;;;25.75;15.88;;;;;;;-142.02;100.00;61695.09;4996106;28;20603;-74
2022/01/28 15:37:16;;;;;;;18.90;10.15;;;;;;;-142.02;100.00;61695.09;4992358;28;20129;-73
2022/01/28 15:39:42;;;;;;;22.73;11.57;;;;;;;-142.02;100.00;61695.09;4975157;28;20058;-73
2022/01/28 15:42:09;;;;;;;27.33;17.42;;;;;;;-142.02;100.00;61695.09;4989384;28;20144;-72
2022/01/28 15:44:36;;;;;;;30.30;17.75;;;;;;;-142.02;100.00;61695.09;5005958;28;20064;-72
2022/01/28 15:47:03;;;;;;;26.00;15.18;;;;;;;-142.02;100.00;61695.09;4990689;28;20478;-72
2022/01/28 15:49:33;;;;;;;22.15;13.15;;;;;;;-142.02;100.00;61695.09;4983896;28;20156;-72
2022/01/28 15:52:00;;;;;;;21.73;13.35;;;;;;;-142.02;100.00;61695.09;4972852;28;20137;-72
2022/01/28 15:54:26;;;;;;;27.98;16.48;;;;;;;-142.02;100.00;61695.09;5007232;28;20065;-72
2022/01/28 15:56:52;;;;;;;16.63;11.23;;;;;;;-142.02;100.00;61695.09;4993613;28;20044;-72
2022/01/28 15:59:19;;;;;;;15.88;11.05;;;;;;;-142.02;100.00;61695.09;4997062;28;20713;-73
2022/01/28 16:01:45;;;;;;;11.25;9.30;;;;;;;-142.02;100.00;61695.09;5012850;28;20049;-73
2022/01/28 16:04:12;;;;;;;19.45;12.65;;;;;;;-142.02;100.00;61695.09;5008701;28;20510;-73
2022/01/28 16:06:38;;;;;;;18.77;13.35;;;;;;;-142.02;100.00;61695.09;5008565;28;20073;-73
2022/01/28 16:09:07;;;;;;;28.83;13.25;;;;;;;-142.02;100.00;61695.09;5011782;28;20084;-72
2022/01/28 16:11:44;;;;;;;31.80;16.17;;;;;;;-142.02;100.00;61695.09;5011304;28;20060;-71
2022/01/28 16:19:30;;;;;;;24.75;13.75;;;;;;;-142.02;100.00;61695.09;4982684;28;20058;-72
2022/01/28 16:21:57;;;;;;;27.73;17.70;;;;;;;-142.02;100.00;61695.09;4992981;28;20509;-72
2022/01/28 16:24:23;;;;;;;33.72;17.88;;;;;;;-142.02;100.00;61695.09;4993822;28;20424;-71
2022/01/28 16:26:53;;;;;;;22.25;15.18;;;;;;;-142.02;100.00;61695.09;4989020;28;20068;-72
2022/01/28 16:29:20;;;;;;;15.50;12.40;;;;;;;-142.02;100.00;61695.09;4986236;28;20049;-74
2022/01/28 16:31:46;;;;;;;18.55;13.98;;;;;;;-142.02;100.00;61695.09;4986917;28;20089;-72
2022/01/28 16:34:14;;;;;;;14.15;11.93;;;;;;;-142.02;100.00;61695.09;4991483;28;20046;-73
2022/01/28 16:36:44;;;;;;;30.63;17.38;;;;;;;-142.02;100.00;61695.09;4991312;28;20137;-72
2022/01/28 16:39:12;;;;;;;20.90;15.40;;;;;;;-142.02;100.00;61695.09;4972121;28;20112;-72
2022/01/28 16:41:42;;;;;;;25.70;16.25;;;;;;;-142.02;100.00;61695.09;5000696;28;20077;-73
2022/01/28 16:44:14;;;;;;;39.08;25.17;;;;;;;-142.02;100.00;61695.09;4994769;28;20057;-72
2022/01/28 16:46:41;;;;;;;24.63;16.35;;;;;;;-142.02;100.00;61695.09;4976630;28;20046;-72
2022/01/28 16:49:08;;;;;;;14.48;11.98;;;;;;;-142.02;100.00;61695.09;4977402;28;20049;-72
2022/01/28 16:51:34;;;;;;;29.00;18.17;;;;;;;-142.02;100.00;61695.09;5007768;28;20054;-72
2022/01/28 16:54:00;;;;;;;16.35;10.73;;;;;;;-142.02;100.00;61695.09;5002254;28;20124;-72
2022/01/28 16:56:27;;;;;;;28.17;15.00;;;;;;;-142.02;100.00;61695.09;4972920;28;20053;-72
2022/01/28 16:58:53;;;;;;;22.08;15.77;;;;;;;-142.02;100.00;61695.09;5031966;28;20081;-72
2022/01/28 17:01:19;;;;;;;27.48;14.93;;;;;;;-142.02;100.00;61695.09;5005344;28;20050;-72
2022/01/28 17:03:47;;;;;;;26.58;18.17;;;;;;;-142.02;100.00;61695.09;5000956;28;20050;-72
2022/01/28 17:06:15;;;;;;;28.23;15.30;;;;;;;-142.02;100.00;61695.09;5002926;28;20046;-72
2022/01/28 17:08:42;;;;;;;28.38;17.00;;;;;;;-142.02;100.00;61695.09;5015062;28;20042;-72
2022/01/28 17:13:44;;;;;;;17.30;13.10;;;;;;;-142.02;100.00;61695.09;4977243;28;20077;-72
2022/01/28 17:16:10;;;;;;;30.45;17.65;;;;;;;-142.02;100.00;61695.09;4993168;28;20103;-72
2022/01/28 17:18:37;;;;;;;21.33;13.73;;;;;;;-142.02;100.00;61695.09;5005655;28;20054;-72
2022/01/28 17:21:04;;;;;;;28.10;15.30;;;;;;;-142.02;100.00;61695.09;4971233;28;20093;-72
2022/01/28 17:23:31;;;;;;;16.27;10.85;;;;;;;-142.02;100.00;61695.09;5008550;28;20050;-72
2022/01/28 17:25:58;;;;;;;11.32;9.90;;;;;;;-142.02;100.00;61695.09;4998242;28;20042;-73
2022/01/28 17:28:24;;;;;;;27.08;16.33;;;;;;;-142.02;100.00;61695.09;4983645;28;20077;-72
2022/01/28 17:30:50;;;;;;;24.77;16.65;;;;;;;-142.02;100.00;61695.09;5010059;28;20045;-72
2022/01/28 17:33:16;;;;;;;15.43;11.70;;;;;;;-142.02;100.00;61695.09;4989130;28;20108;-72
2022/01/28 17:35:43;;;;;;;27.70;18.65;;;;;;;-142.02;100.00;61695.09;4976206;28;20046;-72
2022/01/28 17:38:09;;;;;;;18.80;13.35;;;;;;;-142.02;100.00;61695.09;4991799;28;20042;-72
2022/01/28 17:40:35;;;;;;;28.70;16.13;;;;;;;-142.02;100.00;61695.09;5009584;28;20045;-72
2022/01/28 17:43:01;;;;;;;20.55;14.35;;;;;;;-142.02;100.00;61695.09;4996675;28;20103;-72
2022/01/28 17:45:28;;;;;;;24.52;14.40;;;;;;;-142.02;100.00;61695.09;5009659;28;20422;-72
2022/01/28 17:47:56;;;;;;;22.42;14.30;;;;;;;-142.02;100.00;61695.09;5008037;28;20056;-72
2022/01/28 17:50:22;;;;;;;24.50;15.75;;;;;;;-142.02;100.00;61695.09;4974179;28;20525;-72
2022/01/28 17:52:49;;;;;;;31.38;19.65;;;;;;;-142.02;100.00;61695.09;5008348;28;20049;-72
2022/01/28 17:55:16;;;;;;;26.45;15.93;;;;;;;-142.02;100.00;61695.09;5008629;28;20141;-72
2022/01/28 17:57:42;;;;;;;21.48;16.15;;;;;;;-142.02;100.00;61695.09;5009481;28;20514;-72
2022/01/28 18:00:09;;;;;;;27.08;17.40;;;;;;;-142.02;100.00;61695.09;4991499;28;20045;-72
2022/01/28 18:02:35;;;;;;;17.15;12.63;;;;;;;-142.02;100.00;61695.09;4991743;28;20137;-75
2022/01/28 18:05:01;;;;;;;18.52;10.93;;;;;;;-142.02;100.00;61695.09;4991510;28;20053;-72
2022/01/28 18:07:27;;;;;;;25.42;12.73;;;;;;;-142.02;100.00;61695.09;5009145;28;20522;-72
2022/01/28 18:09:53;;;;;;;30.98;18.05;;;;;;;-142.02;100.00;61695.09;5008665;28;20284;-72
2022/01/28 18:12:19;;;;;;;28.00;15.60;;;;;;;-142.02;100.00;61695.09;4991630;28;20514;-71
2022/01/28 18:14:45;;;;;;;28.67;17.38;;;;;;;-142.02;100.00;61695.09;4993205;28;20050;-71
2022/01/28 18:17:12;;;;;;;19.30;13.55;;;;;;;-142.02;100.00;61695.09;5021885;28;20913;-72
2022/01/28 18:19:38;;;;;;;27.33;17.08;;;;;;;-142.02;100.00;61695.09;4996805;28;20050;-71
2022/01/28 18:22:04;;;;;;;22.33;14.77;;;;;;;-142.02;100.00;61695.09;4987197;28;20518;-71
2022/01/28 18:24:31;;;;;;;25.92;14.05;;;;;;;-142.02;100.00;61695.09;4990833;28;20088;-71
2022/01/28 18:26:57;;;;;;;17.17;10.98;;;;;;;-142.02;100.00;61695.09;5008964;28;20054;-71
2022/01/28 18:29:24;;;;;;;30.02;16.23;;;;;;;-142.02;100.00;61695.09;5007575;28;20045;-71
2022/01/28 18:31:53;;;;;;;36.22;18.25;;;;;;;-142.02;100.00;61695.09;4975434;28;20050;-71
2022/01/28 18:34:19;;;;;;;18.85;12.20;;;;;;;-142.02;100.00;61695.09;4991959;28;20140;-71
2022/01/28 18:36:47;;;;;;;20.95;15.45;;;;;;;-142.02;100.00;61695.09;5008991;28;20050;-72
2022/01/28 18:39:15;;;;;;;31.70;16.92;;;;;;;-142.02;100.00;61695.09;5008990;28;20150;-72
2022/01/28 18:41:44;;;;;;;19.38;12.38;;;;;;;-142.02;100.00;61695.09;5008450;28;20053;-71
2022/01/28 18:44:20;;;;;;;19.98;13.00;;;;;;;-142.02;100.00;61695.09;5008908;28;20049;-72
2022/01/28 18:47:02;;;;;;;25.52;14.32;;;;;;;-142.02;100.00;61695.09;5008822;28;20049;-71
2022/01/28 18:49:30;;;;;;;21.67;13.52;;;;;;;-142.02;100.00;61695.09;5017234;28;20151;-71
2022/01/28 18:52:04;;;;;;;24.60;13.65;;;;;;;-142.02;100.00;61695.09;4989231;28;20106;-72
2022/01/28 18:54:30;;;;;;;32.05;16.10;;;;;;;-142.02;100.00;61695.09;4969739;28;20489;-71
2022/01/28 18:56:56;;;;;;;21.38;14.48;;;;;;;-142.02;100.00;61695.09;4989142;28;20057;-72
2022/01/28 18:59:22;;;;;;;20.83;15.35;;;;;;;-142.02;100.00;61695.09;5010246;28;20058;-71
2022/01/28 19:01:48;;;;;;;32.38;17.67;;;;;;;-142.02;100.00;61695.09;5009490;28;20045;-71
2022/01/28 19:04:14;;;;;;;21.45;12.25;;;;;;;-142.02;100.00;61695.09;4990432;28;20509;-71
2022/01/28 19:06:41;;;;;;;31.45;14.05;;;;;;;-142.02;100.00;61695.09;5008506;28;20042;-72
2022/01/28 19:09:07;;;;;;;31.25;15.75;;;;;;;-142.02;100.00;61695.09;4990876;28;20057;-72
2022/01/28 19:11:37;;;;;;;22.20;15.18;;;;;;;-142.02;100.00;61695.09;5009280;28;20061;-71
2022/01/28 19:14:05;;;;;;;28.50;16.45;;;;;;;-142.02;100.00;61695.09;5014845;28;20061;-71
2022/01/28 19:16:32;;;;;;;28.45;17.30;;;;;;;-142.02;100.00;61695.09;5010727;28;20050;-71
2022/01/28 19:19:07;;;;;;;22.38;14.45;;;;;;;-142.02;100.00;61695.09;4994664;28;20049;-71
2022/01/28 19:21:34;;;;;;;19.10;12.90;;;;;;;-142.02;100.00;61695.09;5008775;28;20164;-71
2022/01/28 19:24:01;;;;;;;34.28;15.70;;;;;;;-142.02;100.00;61695.09;4991255;28;20054;-71
2022/01/28 19:26:27;;;;;;;21.48;12.75;;;;;;;-142.02;100.00;61695.09;5008713;28;20149;-71
2022/01/28 19:28:53;;;;;;;30.90;15.82;;;;;;;-142.02;100.00;61695.09;4990567;28;20101;-72
2022/01/28 19:31:20;;;;;;;25.38;14.52;;;;;;;-142.02;100.00;61695.09;5003856;28;20112;-72
2022/01/28 19:33:47;;;;;;;36.97;15.45;;;;;;;-142.02;100.00;61695.09;4992652;28;20053;-72
2022/01/28 19:36:13;;;;;;;22.67;14.52;;;;;;;-142.02;100.00;61695.09;4995328;28;20058;-71
2022/01/28 19:38:39;;;;;;;36.35;19.25;;;;;;;-142.02;100.00;61695.09;4978761;28;20470;-72
2022/01/28 19:41:06;;;;;;;24.00;13.13;;;;;;;-142.02;100.00;61695.09;4962473;28;20056;-71
2022/01/28 19:43:32;;;;;;;31.58;14.30;;;;;;;-142.02;100.00;61695.09;4993621;28;20149;-72
2022/01/28 19:46:03;;;;;;;19.70;12.27;;;;;;;-142.02;100.00;61695.09;5014229;28;20049;-72
2022/01/28 19:48:30;;;;;;;25.05;15.15;;;;;;;-142.02;100.00;61695.09;5023114;28;20045;-72
2022/01/28 19:50:58;;;;;;;25.20;16.30;;;;;;;-142.02;100.00;61695.09;5013298;28;20830;-72
2022/01/28 19:53:24;;;;;;;15.55;10.90;;;;;;;-142.02;100.00;61695.09;4986386;28;20548;-72
2022/01/28 19:55:51;;;;;;;18.80;13.25;;;;;;;-142.02;100.00;61695.09;5022193;28;20053;-72
2022/01/28 19:58:17;;;;;;;19.80;14.48;;;;;;;-142.02;100.00;61695.09;5023285;28;20081;-72
2022/01/28 20:00:43;;;;;;;27.83;13.73;;;;;;;-142.02;100.00;61695.09;5027751;28;20152;-72
2022/01/28 20:03:09;;;;;;;28.10;16.73;;;;;;;-142.02;100.00;61695.09;5025757;28;20491;-72
2022/01/28 20:05:35;;;;;;;22.52;14.13;;;;;;;-142.02;100.00;61695.09;5025655;28;20038;-71
2022/01/28 20:08:02;;;;;;;15.23;11.98;;;;;;;-142.02;100.00;61695.09;4965172;28;20046;-72
2022/01/28 20:10:28;;;;;;;22.60;13.27;;;;;;;-142.02;100.00;61695.09;5031350;28;20628;-71
2022/01/28 20:12:54;;;;;;;36.78;18.45;;;;;;;-142.02;100.00;61695.09;5031364;28;20049;-72
2022/01/28 20:15:21;;;;;;;20.02;12.77;;;;;;;-142.02;100.00;61695.09;5032062;28;20061;-72
2022/01/28 20:17:47;;;;;;;26.95;16.02;;;;;;;-142.02;100.00;61695.09;5016888;28;20049;-73
2022/01/28 20:20:13;;;;;;;28.90;14.30;;;;;;;-142.02;100.00;61695.09;5023396;28;20069;-72
2022/01/28 20:22:43;;;;;;;23.17;15.48;;;;;;;-142.02;100.00;61695.09;4982990;28;20069;-73
2022/01/28 20:25:09;;;;;;;22.13;12.52;;;;;;;-142.02;100.00;61695.09;4986054;28;20046;-72
2022/01/28 20:27:36;;;;;;;32.70;14.73;;;;;;;-142.02;100.00;61695.09;4976813;28;20425;-72
2022/01/28 20:30:03;;;;;;;23.75;13.60;;;;;;;-142.02;100.00;61695.09;4975721;28;20093;-72
2022/01/28 20:32:29;;;;;;;26.10;15.65;;;;;;;-142.02;100.00;61695.09;4986666;28;20077;-71
2022/01/28 20:34:55;;;;;;;24.83;15.13;;;;;;;-142.02;100.00;61695.09;4959325;28;20050;-72
2022/01/28 20:37:21;;;;;;;32.10;13.73;;;;;;;-142.02;100.00;61695.09;4959596;28;20188;-72
2022/01/28 20:39:48;;;;;;;29.98;15.23;;;;;;;-142.02;100.00;61695.09;4997192;28;20054;-71
2022/01/28 20:42:14;;;;;;;11.27;7.80;;;;;;;-142.02;100.00;61695.09;5005150;28;20046;-71
2022/01/28 20:44:41;;;;;;;18.88;9.98;;;;;;;-142.02;100.00;61695.09;4996025;28;20104;-71
2022/01/28 20:47:07;;;;;;;19.92;12.43;;;;;;;-142.02;100.00;61695.09;4995896;28;20069;-71
2022/01/28 20:49:36;;;;;;;16.88;11.90;;;;;;;-142.02;100.00;61695.09;4980400;28;20050;-71
2022/01/28 20:52:03;;;;;;;15.10;10.55;;;;;;;-142.02;100.00;61695.09;4964889;28;20447;-71
2022/01/28 20:54:29;;;;;;;22.45;10.85;;;;;;;-142.02;100.00;61695.09;5004426;28;20092;-71
2022/01/28 20:56:57;;;;;;;29.80;15.73;;;;;;;-142.02;100.00;61695.09;5009591;28;20136;-71
2022/01/28 20:59:24;;;;;;;21.13;10.20;;;;;;;-142.02;100.00;61695.09;5010026;28;20046;-70
2022/01/28 21:01:50;;;;;;;16.13;10.18;;;;;;;-142.02;100.00;61695.09;5011791;28;20057;-72
2022/01/28 21:04:16;;;;;;;27.30;15.50;;;;;;;-142.02;100.00;61695.09;5031447;28;20045;-72
2022/01/28 21:06:44;;;;;;;16.88;11.60;;;;;;;-142.02;100.00;61695.09;4997593;28;20111;-72
2022/01/28 21:09:10;;;;;;;20.58;12.73;;;;;;;-142.02;100.00;61695.09;4997793;28;20054;-72
2022/01/28 21:11:36;;;;;;;29.48;17.17;;;;;;;-142.02;100.00;61695.09;5013495;28;20054;-72
2022/01/28 21:14:03;;;;;;;21.60;13.65;;;;;;;-142.02;100.00;61695.09;4981575;28;20777;-73
2022/01/28 21:16:30;;;;;;;25.13;16.60;;;;;;;-142.02;100.00;61695.09;5031797;28;20072;-73
2022/01/28 21:18:56;;;;;;;25.63;15.38;;;;;;;-142.02;100.00;61695.09;5014310;28;20056;-73
2022/01/28 21:21:22;;;;;;;20.48;12.13;;;;;;;-142.02;100.00;61695.09;5014467;28;20057;-72
2022/01/28 21:23:48;;;;;;;29.25;16.15;;;;;;;-142.02;100.00;61695.09;4994795;28;20130;-72
2022/01/28 21:26:14;;;;;;;25.27;15.65;;;;;;;-142.02;100.00;61695.09;4977462;28;20049;-71
2022/01/28 21:28:40;;;;;;;17.17;11.68;;;;;;;-142.02;100.00;61695.09;4993671;28;20050;-73
2022/01/28 21:31:07;;;;;;;21.02;12.13;;;;;;;-142.02;100.00;61695.09;4993001;28;20528;-73
2022/01/28 21:33:33;;;;;;;23.23;13.40;;;;;;;-142.02;100.00;61695.09;4976601;28;20058;-72
2022/01/28 21:36:00;;;;;;;16.02;10.20;;;;;;;-142.02;100.00;61695.09;4977399;28;20137;-72
2022/01/28 21:38:26;;;;;;;14.05;10.15;;;;;;;-142.02;100.00;61695.09;4993722;28;20445;-72
2022/01/28 21:40:56;;;;;;;21.25;12.95;;;;;;;-142.02;100.00;61695.09;5011348;28;20069;-73
2022/01/28 21:43:23;;;;;;;32.22;14.50;;;;;;;-142.02;100.00;61695.09;5011330;28;20097;-72
2022/01/28 21:45:49;;;;;;;17.17;11.95;;;;;;;-142.02;100.00;61695.09;4994548;28;20058;-73
2022/01/28 21:48:15;;;;;;;15.85;8.90;;;;;;;-142.02;100.00;61695.09;4994245;28;20120;-72
2022/01/28 21:50:42;;;;;;;19.88;11.35;;;;;;;-142.02;100.00;61695.09;5011648;28;20050;-73
2022/01/28 21:53:10;;;;;;;19.17;11.55;;;;;;;-142.02;100.00;61695.09;5010612;28;20080;-72
2022/01/28 21:55:37;;;;;;;18.23;11.00;;;;;;;-142.02;100.00;61695.09;4977137;28;20552;-71
2022/01/28 21:58:05;;;;;;;29.08;15.63;;;;;;;-142.02;100.00;61695.09;4977426;28;20068;-72
2022/01/28 22:00:31;;;;;;;32.58;16.20;;;;;;;-142.02;100.00;61695.09;5011041;28;20140;-72
2022/01/28 22:02:57;;;;;;;26.00;13.80;;;;;;;-142.02;100.00;61695.09;4995360;28;20045;-73
2022/01/28 22:05:23;;;;;;;15.25;11.75;;;;;;;-142.02;100.00;61695.09;4993237;28;20038;-71
2022/01/28 22:07:49;;;;;;;31.25;14.10;;;;;;;-142.02;100.00;61695.09;5010878;28;20100;-72
2022/01/28 22:10:16;;;;;;;23.75;13.55;;;;;;;-142.02;100.00;61695.09;5009277;28;20111;-72
2022/01/28 22:12:42;;;;;;;14.07;9.02;;;;;;;-142.02;100.00;61695.09;5009725;28;20049;-73
2022/01/28 22:15:09;;;;;;;30.33;16.55;;;;;;;-142.02;100.00;61695.09;5007483;28;20061;-71
2022/01/28 22:17:35;;;;;;;13.25;8.77;;;;;;;-142.02;100.00;61695.09;5009596;28;20054;-72
2022/01/28 22:20:01;;;;;;;35.90;18.85;;;;;;;-142.02;100.00;61695.09;5010951;28;20045;-72
2022/01/28 22:22:28;;;;;;;15.90;10.15;;;;;;;-142.02;100.00;61695.09;5004574;28;20136;-72
2022/01/28 22:24:55;;;;;;;16.70;11.48;;;;;;;-142.02;100.00;61695.09;4993085;28;20470;-72
2022/01/28 22:27:21;;;;;;;21.35;12.90;;;;;;;-142.02;100.00;61695.09;4992607;28;20050;-72
2022/01/28 22:29:47;;;;;;;25.77;13.20;;;;;;;-142.02;100.00;61695.09;4992712;28;20402;-72
2022/01/28 22:32:14;;;;;;;37.38;16.55;;;;;;;-142.02;100.00;61695.09;5015257;28;20081;-76
2022/01/28 22:34:40;;;;;;;46.72;20.38;;;;;;;-142.02;100.00;61695.09;5019932;28;20061;-74
2022/01/28 22:37:06;;;;;;;33.33;16.80;;;;;;;-142.02;100.00;61695.09;5020149;28;20064;-75
2022/01/28 22:39:33;;;;;;;35.22;17.92;;;;;;;-142.02;100.00;61695.09;4987404;28;20096;-75
2022/01/28 22:42:01;;;;;;;27.17;15.20;;;;;;;-142.02;100.00;61695.09;5020879;28;20571;-75
2022/01/28 22:44:26;;;;;;;38.95;18.77;;;;;;;-142.02;100.00;61695.09;5017029;28;20056;-74
2022/01/28 22:46:52;;;;;;;43.58;21.20;;;;;;;-142.02;100.00;61695.09;5015696;28;20046;-74
2022/01/28 22:49:18;;;;;;;34.08;15.60;;;;;;;-142.02;100.00;61695.09;5016615;28;20445;-74
2022/01/28 22:51:44;;;;;;;21.45;10.35;;;;;;;-142.02;100.00;61695.09;4999620;28;20085;-75
2022/01/28 22:54:10;;;;;;;45.10;21.58;;;;;;;-142.02;100.00;61695.09;5000835;28;20058;-75
2022/01/28 22:56:37;;;;;;;47.42;23.08;;;;;;;-142.02;100.00;61695.09;5002926;28;20037;-75
2022/01/28 22:59:03;;;;;;;40.20;18.08;;;;;;;-142.02;100.00;61695.09;4999108;28;20103;-76
2022/01/28 23:01:29;;;;;;;26.00;14.63;;;;;;;-142.02;100.00;61695.09;4983885;28;20046;-74
2022/01/28 23:03:55;;;;;;;24.52;13.98;;;;;;;-142.02;100.00;61695.09;5015580;28;20062;-74
2022/01/28 23:06:23;;;;;;;28.88;15.80;;;;;;;-142.02;100.00;61695.09;4986028;28;20050;-73
2022/01/28 23:08:49;;;;;;;33.33;15.77;;;;;;;-142.02;100.00;61695.09;4984875;28;20056;-74
2022/01/28 23:11:17;;;;;;;18.58;9.40;;;;;;;-142.02;100.00;61695.09;4980005;28;20046;-75
2022/01/28 23:13:44;;;;;;;30.25;16.45;;;;;;;-142.02;100.00;61695.09;5013363;28;20088;-75
2022/01/28 23:16:10;;;;;;;18.35;11.32;;;;;;;-142.02;100.00;61695.09;4999983;28;20138;-74
2022/01/28 23:18:36;;;;;;;15.70;11.45;;;;;;;-142.02;100.00;61695.09;4999431;28;20073;-75
2022/01/28 23:21:02;;;;;;;26.13;12.65;;;;;;;-142.02;100.00;61695.09;4999260;28;20057;-74
2022/01/28 23:23:29;;;;;;;35.03;19.20;;;;;;;-142.02;100.00;61695.09;4998354;28;20148;-75
2022/01/28 23:25:55;;;;;;;14.43;9.65;;;;;;;-142.02;100.00;61695.09;4982704;28;20119;-74
2022/01/28 23:28:21;;;;;;;11.82;7.80;;;;;;;-142.02;100.00;61695.09;5018165;28;20045;-74
2022/01/28 23:30:47;;;;;;;39.53;18.50;;;;;;;-142.02;100.00;61695.09;4991566;28;20050;-74
2022/01/28 23:33:14;;;;;;;27.02;12.02;;;;;;;-142.02;100.00;61695.09;4983869;28;20061;-74
2022/01/28 23:35:40;;;;;;;26.98;15.50;;;;;;;-142.02;100.00;61695.09;5016716;28;20057;-75
2022/01/28 23:38:07;;;;;;;19.98;10.07;;;;;;;-142.02;100.00;61695.09;4999249;28;20057;-74
2022/01/28 23:40:33;;;;;;;13.95;9.25;;;;;;;-142.02;100.00;61695.09;4998020;28;20046;-75
2022/01/28 23:42:59;;;;;;;8.50;7.50;;;;;;;-142.02;100.00;61695.09;5017006;28;20048;-75
2022/01/28 23:45:25;;;;;;;14.32;9.68;;;;;;;-142.02;100.00;61695.09;5015911;28;20050;-75
2022/01/28 23:47:52;;;;;;;34.03;13.65;;;;;;;-142.02;100.00;61695.09;4998927;28;20065;-75
2022/01/28 23:50:18;;;;;;;18.70;10.65;;;;;;;-142.02;100.00;61695.09;5016987;28;20050;-73
2022/01/28 23:52:43;;;;;;;11.38;8.93;;;;;;;-142.02;100.00;61695.09;4999178;28;20061;-74
2022/01/28 23:55:11;;;;;;;16.35;10.95;;;;;;;-142.02;100.00;61695.09;5013889;28;20068;-74
2022/01/28 23:57:37;;;;;;;18.50;9.77;;;;;;;-142.02;100.00;61695.09;4996806;28;20037;-75
